METAR Data
IDs: Format: Raw Decoded Include TAF

Data at: 1418 UTC 27 Nov 2021

Region: TOP
KATL 271352Z 32006KT 10SM CLR 04/M06 A3015 RMK AO2 SLP217 T00391061 $

KBOS 271354Z 28013G24KT 10SM BKN035 BKN110 02/M05 A2963 RMK AO2 SLP034 T00171050

KBWI 271354Z 32017G25KT 10SM BKN047 BKN250 03/M08 A3003 RMK AO2 SLP169 T00281083

KCLE 271351Z 21008KT 10SM BKN025 BKN080 M02/M06 A3004 RMK AO2 SLP198 T10171061

KCLT 271352Z 00000KT 10SM FEW200 04/M06 A3014 RMK AO2 SLP208 T00441061

KCVG 271352Z 17009KT 10SM BKN065 OVC110 01/M06 A3004 RMK AO2 SLP177 T00111061

KDCA 271352Z 32012G21KT 10SM FEW050 03/M08 A3006 RMK AO2 SLP180 T00281083

KDEN 271353Z 12009KT 10SM FEW180 BKN220 01/M11 A3018 RMK AO2 SLP202 T00111111

KDFW 271353Z 20007KT 10SM FEW060 BKN095 OVC120 10/01 A3009 RMK AO2 SLP188 T01000006

KDTW 271353Z 18005KT 10SM FEW065 BKN085 BKN130 M02/M06 A3004 RMK AO2 SLP180 T10221056

KEWR 271351Z 29013G25KT 10SM BKN042 03/M07 A2988 RMK AO2 PK WND 29028/1313 SLP118 T00331072 $

KFLL 271353Z 33007KT 10SM FEW030 FEW250 20/17 A3008 RMK AO2 SLP186 T02000167

KIAD 271352Z 30011KT 10SM SCT046 SCT250 02/M08 A3006 RMK AO2 SLP180 T00221083

KIAH 271353Z 00000KT 10SM FEW070 BKN100 OVC250 09/07 A3019 RMK AO2 RAB1258E37 SLP223 P0000 T00890072

KJFK 271351Z 30018G25KT 10SM BKN042 03/M07 A2986 RMK AO2 PK WND 31029/1257 SLP113 T00331067

KLAS 271356Z 23003KT 10SM CLR 07/M14 A3016 RMK AO2 SLP210 T00671144

KLAX 271353Z 11003KT 10SM CLR 11/M04 A3006 RMK AO2 SLP177 T01061044

KLGA 271351Z 30019G24KT 10SM BKN043 03/M06 A2986 RMK AO2 PK WND 30026/1256 SLP112 T00331061

KMCO 271353Z 33008KT 10SM FEW050 FEW250 14/06 A3013 RMK AO2 SLP200 T01390056

KMDW 271353Z 18007KT 10SM BKN120 BKN170 OVC250 01/M07 A2988 RMK AO2 SLP131 T00061067 $

KMEM 271354Z 20006KT 10SM FEW250 04/M01 A3012 RMK AO2 SLP201 T00441006 $

KMIA 271353Z 35005KT 10SM FEW040 FEW250 21/16 A3009 RMK AO2 SLP190 T02060161 $

KMSP 271353Z 10005KT 10SM BKN100 M02/M09 A2976 RMK AO2 SLP089 T10171094

KORD 271351Z 18008KT 10SM BKN110 BKN140 OVC250 01/M06 A2987 RMK AO2 SLP121 T00061056

KPDX 271353Z 12007KT 10SM OVC017 11/09 A3015 RMK AO2 RAB05E14 SLP208 P0001 T01110089

KPHL 271354Z 31012KT 10SM BKN045 03/M08 A2997 RMK AO2 SLP147 T00331083

KPHX 271351Z 12004KT 10SM CLR 12/02 A3007 RMK AO2 SLP173 T01220022

KPIT 271351Z 23007KT 10SM BKN031 M02/M08 A3007 RMK AO2 SLP203 T10171078

KSAN 271351Z 00000KT 10SM CLR 08/M01 A3007 RMK AO2 SLP182 T00781011

KSEA 271353Z 14003KT 6SM BR SCT005 BKN027 OVC035 09/08 A3010 RMK AO2 SLP200 T00890083 $

KSFO 271356Z 00000KT 10SM FEW200 10/07 A3014 RMK AO2 SLP207 T01000072 $

KSLC 271354Z 00000KT 10SM FEW060 BKN070 BKN140 M02/M06 A3032 RMK AO2 SLP283 T10221056

KSTL 271351Z 14004KT 10SM BKN200 BKN250 04/M03 A2993 RMK AO2 SLP140 T00391033

KTPA 271353Z 03007KT 10SM FEW140 SCT250 14/01 A3014 RMK AO2 SLP206 T01390011